Main page
METAR-TAF:

METAR-TAF

Airports :

Gloucester, England

Gloucestershire Airport

latitude: 51-54N, longitude: 002-10W, elevation: 29 m

Current weather observation

The report was made 4 hours and 57 minutes ago, at 18:20 UTC
Wind 8 kt from the West
Temperature 19°C
Humidity 64%
Pressure 1015 hPa
Visibility 10 km or more
Few clouds at a height of 3500 ft

METAR: EGBJ 231820Z 26008KT 9999 FEW035 19/12 Q1015

Time: 00:17 (23:17 UTC)

Forecast

The report was made 9 hours and 19 minutes ago, at 13:58 UTC
Forecast valid from 23 at 15 UTC to 23 at 19 UTC
Wind 10 kt from the West
Visibility 10 km or more
Few clouds at a height of 2500 ft

TAF: EGBJ 231358Z 2315/2319 28010KT 9999 FEW025

Weather observations and forecasts of more than 4000 airports (METAR and TAF reports).

The available stations are represented by yellow and red dots on the map.

Hover mouse over dot to see the name of the station.

Then click to see weather observations and forecasts.

To change the map : click on the green buttons with a black cross to zoom in, on the green button with a dash to zoom out, or on the green arrows for adjacent maps.


METAR-TAF: